createdAt,value
2022-08-07T00:02:37.562Z,11.79
2022-08-07T00:05:05.969Z,11.80
2022-08-07T00:07:40.325Z,11.76
2022-08-07T00:10:30.747Z,11.74
2022-08-07T00:13:09.637Z,11.63
2022-08-07T00:15:53.383Z,11.56
2022-08-07T00:18:26.210Z,11.54
2022-08-07T00:21:01.385Z,11.44
2022-08-07T00:23:36.072Z,11.29
2022-08-07T00:26:18.566Z,11.21
2022-08-07T00:28:59.532Z,11.39
2022-08-07T00:31:38.053Z,11.58
2022-08-07T00:34:11.757Z,11.69
2022-08-07T00:36:42.750Z,11.88
2022-08-07T00:39:16.929Z,12.24
2022-08-07T00:42:01.828Z,12.38
2022-08-07T00:44:34.645Z,12.65
2022-08-07T00:47:06.376Z,12.97
2022-08-07T00:50:19.612Z,13.09
2022-08-07T00:52:33.571Z,13.19
2022-08-07T00:55:10.395Z,13.50
2022-08-07T00:57:44.457Z,13.66
2022-08-07T01:00:26.255Z,14.00
2022-08-07T01:02:55.997Z,14.10
2022-08-07T01:05:28.118Z,14.34
2022-08-07T01:07:58.747Z,14.41
2022-08-07T01:10:27.705Z,14.71
2022-08-07T01:12:57.386Z,14.95
2022-08-07T01:15:35.821Z,15.01
2022-08-07T01:18:19.492Z,14.84
2022-08-07T01:20:59.762Z,14.69
2022-08-07T01:23:37.903Z,14.84
2022-08-07T01:26:12.074Z,15.13
2022-08-07T01:28:48.444Z,15.40
2022-08-07T01:31:42.811Z,15.54
2022-08-07T01:34:18.798Z,15.63
2022-08-07T01:36:52.663Z,16.16
2022-08-07T01:39:41.222Z,16.54
2022-08-07T01:42:38.411Z,16.86
2022-08-07T01:45:37.402Z,17.11
2022-08-07T01:48:20.438Z,17.04
2022-08-07T01:51:24.236Z,17.83
2022-08-07T01:54:12.283Z,17.79
2022-08-07T01:57:06.878Z,17.42
2022-08-07T01:59:54.616Z,18.15
2022-08-07T02:02:32.766Z,18.26
2022-08-07T02:05:48.365Z,17.85
2022-08-07T02:08:27.326Z,17.39
2022-08-07T02:11:00.111Z,17.36
2022-08-07T02:13:57.945Z,18.79
2022-08-07T02:16:33.705Z,20.17
2022-08-07T02:20:04.322Z,20.43
2022-08-07T02:22:03.082Z,19.50
2022-08-07T02:24:37.138Z,18.48
2022-08-07T02:27:09.001Z,17.97
2022-08-07T02:29:43.628Z,17.66
2022-08-07T02:32:23.379Z,17.43
2022-08-07T02:34:58.882Z,17.56
2022-08-07T02:37:36.162Z,18.14
2022-08-07T02:40:31.198Z,18.10
2022-08-07T02:43:07.896Z,18.48
2022-08-07T02:45:58.361Z,19.23
2022-08-07T02:48:32.268Z,19.02
2022-08-07T02:51:14.309Z,19.04
2022-08-07T02:54:01.338Z,20.55
2022-08-07T02:56:33.991Z,22.61
2022-08-07T02:59:07.132Z,23.72
2022-08-07T03:01:40.320Z,24.58
2022-08-07T03:04:15.406Z,25.74
2022-08-07T03:06:48.643Z,26.65
2022-08-07T03:09:42.142Z,27.76
2022-08-07T03:12:21.973Z,28.03
2022-08-07T03:15:02.272Z,29.07
2022-08-07T03:17:36.359Z,29.16
2022-08-07T03:20:23.990Z,30.36
2022-08-07T03:22:55.813Z,30.59
2022-08-07T03:25:40.084Z,31.59
2022-08-07T03:28:37.342Z,32.33
2022-08-07T03:31:24.501Z,32.63
2022-08-07T03:34:04.139Z,33.28
2022-08-07T03:36:36.759Z,33.45
2022-08-07T03:39:09.740Z,33.29
2022-08-07T03:41:42.420Z,33.82
2022-08-07T03:44:31.751Z,34.15
2022-08-07T03:47:14.178Z,33.35
2022-08-07T03:49:52.286Z,31.76
2022-08-07T03:52:27.613Z,32.26
2022-08-07T03:55:06.495Z,33.19
2022-08-07T03:58:33.841Z,34.37
2022-08-07T04:00:37.071Z,35.45
2022-08-07T04:03:06.611Z,35.32
2022-08-07T04:05:45.604Z,35.89
2022-08-07T04:08:22.270Z,35.98
2022-08-07T04:12:20.843Z,35.21
2022-08-07T04:14:10.430Z,35.08
2022-08-07T04:16:36.908Z,35.77
2022-08-07T04:19:14.776Z,36.15
2022-08-07T04:22:05.478Z,36.14
2022-08-07T04:24:43.877Z,36.25
2022-08-07T04:27:25.532Z,35.98
2022-08-07T04:30:02.152Z,36.04
2022-08-07T04:32:44.966Z,36.69
2022-08-07T04:35:18.292Z,36.85
2022-08-07T04:38:02.912Z,36.79
2022-08-07T04:40:52.295Z,36.68
2022-08-07T04:44:09.982Z,36.70
2022-08-07T04:46:34.745Z,35.76
2022-08-07T04:49:37.529Z,34.97
2022-08-07T04:52:27.535Z,33.31
2022-08-07T04:55:15.009Z,31.61
2022-08-07T04:58:27.922Z,29.55
2022-08-07T05:01:30.855Z,28.11
2022-08-07T05:04:23.257Z,27.86
2022-08-07T05:07:19.731Z,27.01
2022-08-07T05:10:05.388Z,26.15
2022-08-07T05:14:44.874Z,25.03
2022-08-07T05:15:54.933Z,24.75
2022-08-07T05:18:28.090Z,26.53
2022-08-07T05:21:02.707Z,29.32
2022-08-07T05:23:40.075Z,30.74
2022-08-07T05:26:23.756Z,30.57
2022-08-07T05:29:05.103Z,29.43
2022-08-07T05:31:40.170Z,27.74
2022-08-07T05:34:20.624Z,29.14
2022-08-07T05:36:57.343Z,30.82
2022-08-07T05:40:05.491Z,31.87
2022-08-07T05:42:33.808Z,31.46
2022-08-07T05:45:26.259Z,31.95
2022-08-07T05:48:05.841Z,33.18
2022-08-07T05:50:45.039Z,31.75
2022-08-07T05:54:13.719Z,31.37
2022-08-07T05:56:07.149Z,32.14
2022-08-07T05:58:52.390Z,30.71
2022-08-07T06:01:27.345Z,29.29
2022-08-07T06:04:09.249Z,31.01
2022-08-07T06:06:46.372Z,32.08
2022-08-07T06:09:18.862Z,29.77
2022-08-07T06:11:51.468Z,27.30
2022-08-07T06:14:28.645Z,25.95
2022-08-07T06:17:07.378Z,27.46
2022-08-07T06:19:57.604Z,29.66
2022-08-07T06:22:38.942Z,29.20
2022-08-07T06:25:23.086Z,29.99
2022-08-07T06:28:01.743Z,31.56
2022-08-07T06:30:41.386Z,32.64
2022-08-07T06:33:16.625Z,32.97
2022-08-07T06:36:11.861Z,32.94
2022-08-07T06:38:59.339Z,33.40
2022-08-07T06:42:03.524Z,31.58
2022-08-07T06:44:58.263Z,28.70
2022-08-07T06:47:27.872Z,26.99
2022-08-07T06:50:09.148Z,25.50
2022-08-07T06:52:46.312Z,24.47
2022-08-07T06:56:00.489Z,25.30
2022-08-07T06:58:27.451Z,25.63
2022-08-07T07:01:11.155Z,26.36
2022-08-07T07:03:48.872Z,27.74
2022-08-07T07:06:26.496Z,30.21
2022-08-07T07:08:56.850Z,31.81
2022-08-07T07:12:08.605Z,32.97
2022-08-07T07:14:18.874Z,33.35
2022-08-07T07:16:54.106Z,34.13
2022-08-07T07:19:56.870Z,34.75
2022-08-07T07:22:35.971Z,34.26
2022-08-07T07:26:32.400Z,31.31
2022-08-07T07:29:22.765Z,28.42
2022-08-07T07:31:30.525Z,25.86
2022-08-07T07:34:15.642Z,27.73
2022-08-07T07:36:47.946Z,30.15
2022-08-07T07:39:23.586Z,31.81
2022-08-07T07:42:12.935Z,32.90
2022-08-07T07:44:49.527Z,33.61
2022-08-07T07:47:23.676Z,33.97
2022-08-07T07:50:34.370Z,34.10
2022-08-07T07:52:46.913Z,33.98
2022-08-07T07:55:20.050Z,34.19
2022-08-07T07:57:58.238Z,34.48
2022-08-07T08:00:31.392Z,34.84
2022-08-07T08:04:06.151Z,32.79
2022-08-07T08:06:08.395Z,29.88
2022-08-07T08:08:43.923Z,27.69
2022-08-07T08:11:17.902Z,26.57
2022-08-07T08:14:03.650Z,25.37
2022-08-07T08:16:50.259Z,24.35
2022-08-07T08:20:16.942Z,23.77
2022-08-07T08:22:34.416Z,23.25
2022-08-07T08:25:26.911Z,22.83
2022-08-07T08:28:16.928Z,22.67
2022-08-07T08:30:59.393Z,22.85
2022-08-07T08:33:34.813Z,23.00
2022-08-07T08:36:06.100Z,22.96
2022-08-07T08:38:41.356Z,22.91
2022-08-07T08:41:57.932Z,22.96
2022-08-07T08:44:40.899Z,22.71
2022-08-07T08:47:26.190Z,22.46
2022-08-07T08:50:56.644Z,22.36
2022-08-07T08:53:34.105Z,22.51
2022-08-07T08:56:24.510Z,22.48
2022-08-07T08:59:02.359Z,22.40
2022-08-07T09:02:01.146Z,22.45
2022-08-07T09:04:58.347Z,22.29
2022-08-07T09:07:46.380Z,22.17
2022-08-07T09:10:35.001Z,21.98
2022-08-07T09:13:37.088Z,21.91
2022-08-07T09:16:24.188Z,21.88
2022-08-07T09:19:51.609Z,21.89
2022-08-07T09:24:33.578Z,21.84
2022-08-07T09:25:38.430Z,21.81
2022-08-07T09:30:05.419Z,21.68
2022-08-07T09:31:08.492Z,21.68
2022-08-07T09:33:57.334Z,21.67
2022-08-07T09:36:42.944Z,21.61
2022-08-07T09:39:52.859Z,21.53
2022-08-07T09:42:35.394Z,21.52
2022-08-07T09:47:27.388Z,21.43
2022-08-07T09:48:30.175Z,21.29
2022-08-07T09:52:16.254Z,21.20
2022-08-07T09:54:47.776Z,21.08
2022-08-07T09:57:22.545Z,20.98
2022-08-07T10:00:15.419Z,20.92
2022-08-07T10:04:05.432Z,20.92
2022-08-07T10:06:17.926Z,20.88
2022-08-07T10:09:06.109Z,20.83
2022-08-07T10:12:01.459Z,20.84
2022-08-07T10:15:19.865Z,20.81
2022-08-07T10:18:27.130Z,20.73
2022-08-07T10:22:12.331Z,20.73
2022-08-07T10:24:39.582Z,20.69
2022-08-07T10:27:45.961Z,20.57
2022-08-07T10:30:44.911Z,20.50
2022-08-07T10:34:06.524Z,20.54
2022-08-07T10:36:31.159Z,20.54
2022-08-07T10:39:42.114Z,20.43
2022-08-07T10:42:31.108Z,20.27
2022-08-07T10:45:08.308Z,20.10
2022-08-07T10:47:53.296Z,19.96
2022-08-07T10:50:34.902Z,19.86
2022-08-07T10:53:45.051Z,19.75
2022-08-07T10:56:37.726Z,19.58
2022-08-07T10:59:47.500Z,19.53
2022-08-07T11:02:38.475Z,19.46
2022-08-07T11:05:50.624Z,19.33
2022-08-07T11:08:39.016Z,19.26
2022-08-07T11:11:28.224Z,19.17
2022-08-07T11:14:43.825Z,19.11
2022-08-07T11:17:09.200Z,19.06
2022-08-07T11:19:53.626Z,18.99
2022-08-07T11:22:45.873Z,18.94
2022-08-07T11:25:19.685Z,18.92
2022-08-07T11:28:15.462Z,18.87
2022-08-07T11:31:03.661Z,18.78
2022-08-07T11:34:00.332Z,18.74
2022-08-07T11:36:52.437Z,18.70
2022-08-07T11:40:01.032Z,18.62
2022-08-07T11:43:06.607Z,18.54
2022-08-07T11:46:04.949Z,18.47
2022-08-07T11:49:51.494Z,18.38
2022-08-07T11:52:06.017Z,18.28
2022-08-07T11:54:55.041Z,18.15
2022-08-07T11:58:00.748Z,18.06
2022-08-07T12:01:04.386Z,17.95
2022-08-07T12:03:57.816Z,17.85
2022-08-07T12:06:37.056Z,17.79
2022-08-07T12:09:23.385Z,17.65
2022-08-07T12:12:10.698Z,17.60
2022-08-07T12:15:02.877Z,17.50
2022-08-07T12:17:59.259Z,17.42
2022-08-07T12:20:43.834Z,17.34
2022-08-07T12:24:05.710Z,17.24
2022-08-07T12:26:46.584Z,17.10
2022-08-07T12:29:38.491Z,17.00
2022-08-07T12:32:34.969Z,16.91
2022-08-07T12:35:07.377Z,16.83
2022-08-07T12:38:09.334Z,16.75
2022-08-07T12:40:50.304Z,16.66
2022-08-07T12:44:03.482Z,16.56
2022-08-07T12:46:50.822Z,16.47
2022-08-07T12:49:48.518Z,16.37
2022-08-07T12:52:17.979Z,16.29
2022-08-07T12:55:09.448Z,16.23
2022-08-07T12:58:00.260Z,16.10
2022-08-07T13:00:56.785Z,16.03
2022-08-07T13:03:54.826Z,15.93
2022-08-07T13:07:08.385Z,15.80
2022-08-07T13:10:28.812Z,15.69
2022-08-07T13:13:57.276Z,15.57
2022-08-07T13:16:43.209Z,15.48
2022-08-07T13:19:35.187Z,15.41
2022-08-07T13:22:33.153Z,15.30
2022-08-07T13:25:15.263Z,15.24
2022-08-07T13:28:13.765Z,15.15
2022-08-07T13:31:01.694Z,15.08
2022-08-07T13:34:30.524Z,15.07
2022-08-07T13:36:55.223Z,15.02
2022-08-07T13:40:34.232Z,15.02
2022-08-07T13:42:26.318Z,14.94
2022-08-07T13:46:06.783Z,14.87
2022-08-07T13:48:05.964Z,14.85
2022-08-07T13:51:00.009Z,14.83
2022-08-07T13:53:45.726Z,14.81
2022-08-07T13:56:36.239Z,14.78
2022-08-07T13:59:34.370Z,14.73
2022-08-07T14:02:15.698Z,14.69
2022-08-07T14:04:54.431Z,14.64
2022-08-07T14:07:28.329Z,14.63
2022-08-07T14:10:17.658Z,14.59
2022-08-07T14:13:08.174Z,14.58
2022-08-07T14:15:41.152Z,14.57
2022-08-07T14:18:27.924Z,14.55
2022-08-07T14:22:01.395Z,14.53
2022-08-07T14:24:14.425Z,14.51
2022-08-07T14:26:51.709Z,14.52
2022-08-07T14:30:05.623Z,14.48
2022-08-07T14:32:13.218Z,14.46
2022-08-07T14:34:46.736Z,14.41
2022-08-07T14:37:18.981Z,14.38
2022-08-07T14:40:18.148Z,14.35
2022-08-07T14:42:59.922Z,14.27
2022-08-07T14:45:48.772Z,14.29
2022-08-07T14:48:27.246Z,14.23
2022-08-07T14:51:00.695Z,14.25
2022-08-07T14:54:03.783Z,14.25
2022-08-07T14:56:29.832Z,14.16
2022-08-07T14:59:13.812Z,14.22
2022-08-07T15:02:09.062Z,14.15
2022-08-07T15:05:01.777Z,14.18
2022-08-07T15:10:29.886Z,14.12
2022-08-07T15:13:06.672Z,14.10
2022-08-07T15:18:41.818Z,14.04
2022-08-07T15:21:58.884Z,13.97
2022-08-07T15:25:14.522Z,13.96
2022-08-07T15:27:27.136Z,13.94
2022-08-07T15:30:16.697Z,13.85
2022-08-07T15:33:03.675Z,13.89
2022-08-07T15:36:00.377Z,13.88
2022-08-07T15:38:51.180Z,13.85
2022-08-07T15:42:46.221Z,13.81
2022-08-07T15:44:19.514Z,13.77
2022-08-07T15:50:04.159Z,13.61
2022-08-07T15:52:36.581Z,13.68
2022-08-07T15:55:11.653Z,13.76
2022-08-07T15:57:48.406Z,13.75
2022-08-07T16:00:33.421Z,13.73
2022-08-07T16:03:08.546Z,13.68
2022-08-07T16:05:53.009Z,13.70
2022-08-07T16:08:32.875Z,13.66
2022-08-07T16:11:17.436Z,13.62
2022-08-07T16:14:22.724Z,13.61
2022-08-07T16:17:03.399Z,13.58
2022-08-07T16:20:07.148Z,13.49
2022-08-07T16:22:55.117Z,13.45
2022-08-07T16:25:52.632Z,13.43
2022-08-07T16:29:18.660Z,13.38
2022-08-07T16:31:57.893Z,13.19
2022-08-07T16:34:39.306Z,13.30
2022-08-07T16:38:06.231Z,13.26
2022-08-07T16:40:57.243Z,13.24
2022-08-07T16:44:06.099Z,13.18
2022-08-07T16:47:08.731Z,13.18
2022-08-07T16:50:26.604Z,13.17
2022-08-07T16:54:02.413Z,13.22
2022-08-07T16:56:26.834Z,13.27
2022-08-07T16:59:14.311Z,13.35
2022-08-07T17:01:59.812Z,13.41
2022-08-07T17:04:58.855Z,13.46
2022-08-07T17:07:55.994Z,13.49
2022-08-07T17:10:42.524Z,13.43
2022-08-07T17:13:41.356Z,13.43
2022-08-07T17:16:29.926Z,13.26
2022-08-07T17:18:58.741Z,13.28
2022-08-07T17:21:51.192Z,13.18
2022-08-07T17:24:38.946Z,13.15
2022-08-07T17:27:32.636Z,13.12
2022-08-07T17:30:13.970Z,13.11
2022-08-07T17:32:49.611Z,13.17
2022-08-07T17:35:55.024Z,13.14
2022-08-07T17:38:47.468Z,13.13
2022-08-07T17:42:03.807Z,13.09
2022-08-07T17:44:45.461Z,13.02
2022-08-07T17:47:38.434Z,12.95
2022-08-07T17:50:19.805Z,12.88
2022-08-07T17:53:54.161Z,12.84
2022-08-07T17:56:15.452Z,12.74
2022-08-07T17:58:57.722Z,12.73
2022-08-07T18:01:46.422Z,12.62
2022-08-07T18:04:35.794Z,12.62
2022-08-07T18:07:22.606Z,12.59
2022-08-07T18:10:07.576Z,12.50
2022-08-07T18:13:10.151Z,12.46
2022-08-07T18:15:42.406Z,12.40
2022-08-07T18:18:46.012Z,12.38
2022-08-07T18:21:51.704Z,12.29
2022-08-07T18:24:33.508Z,12.27
2022-08-07T18:27:20.790Z,12.25
2022-08-07T18:30:07.039Z,12.23
2022-08-07T18:33:15.184Z,12.10
2022-08-07T18:36:17.909Z,12.21
2022-08-07T18:40:06.834Z,12.17
2022-08-07T18:42:19.346Z,12.12
2022-08-07T18:47:49.088Z,11.99
2022-08-07T18:51:08.571Z,11.99
2022-08-07T18:54:30.447Z,11.98
2022-08-07T18:57:30.892Z,11.94
2022-08-07T19:00:34.466Z,12.07
2022-08-07T19:03:47.701Z,12.05
2022-08-07T19:06:33.522Z,12.08
2022-08-07T19:09:54.773Z,12.04
2022-08-07T19:12:16.207Z,11.98
2022-08-07T19:15:00.565Z,11.95
2022-08-07T19:18:02.751Z,11.89
2022-08-07T19:21:08.550Z,11.82
2022-08-07T19:23:58.748Z,11.77
2022-08-07T19:27:01.880Z,11.73
2022-08-07T19:31:05.417Z,11.71
2022-08-07T19:32:28.807Z,11.69
2022-08-07T19:35:03.799Z,11.62
2022-08-07T19:37:56.546Z,11.67
2022-08-07T19:40:31.504Z,11.66
2022-08-07T19:43:49.977Z,11.62
2022-08-07T19:46:12.742Z,11.61
2022-08-07T19:48:53.845Z,11.61
2022-08-07T19:51:53.319Z,11.62
2022-08-07T19:54:34.444Z,11.61
2022-08-07T19:58:02.454Z,11.63
2022-08-07T20:00:08.777Z,11.59
2022-08-07T20:02:52.096Z,11.59
2022-08-07T20:05:29.351Z,11.58
2022-08-07T20:08:02.851Z,11.53
2022-08-07T20:10:55.048Z,11.57
2022-08-07T20:13:33.599Z,11.55
2022-08-07T20:16:05.097Z,11.53
2022-08-07T20:18:35.052Z,11.54
2022-08-07T20:21:20.874Z,11.50
2022-08-07T20:23:57.964Z,11.48
2022-08-07T20:26:45.174Z,11.49
2022-08-07T20:29:49.324Z,11.44
2022-08-07T20:32:22.905Z,11.46
2022-08-07T20:35:01.252Z,11.42
2022-08-07T20:37:55.641Z,11.44
2022-08-07T20:40:40.556Z,11.38
2022-08-07T20:43:14.898Z,11.41
2022-08-07T20:46:26.519Z,11.36
2022-08-07T20:49:53.995Z,11.42
2022-08-07T20:51:35.977Z,11.38
2022-08-07T20:54:12.152Z,11.42
2022-08-07T20:56:50.505Z,11.31
2022-08-07T21:00:05.226Z,11.38
2022-08-07T21:02:54.422Z,11.39
2022-08-07T21:05:52.897Z,11.38
2022-08-07T21:08:47.014Z,11.36
2022-08-07T21:11:22.201Z,11.37
2022-08-07T21:14:34.040Z,11.35
2022-08-07T21:18:02.710Z,11.30
2022-08-07T21:20:04.460Z,11.32
2022-08-07T21:22:45.077Z,11.33
2022-08-07T21:25:44.810Z,11.37
2022-08-07T21:28:49.921Z,11.37
2022-08-07T21:31:50.115Z,11.43
2022-08-07T21:34:26.702Z,11.49
2022-08-07T21:37:09.402Z,11.51
2022-08-07T21:40:08.215Z,11.58
2022-08-07T21:42:48.978Z,11.59
2022-08-07T21:45:30.779Z,11.59
2022-08-07T21:48:29.277Z,11.60
2022-08-07T21:51:32.302Z,11.61
2022-08-07T21:54:11.479Z,11.63
2022-08-07T21:56:48.108Z,11.64
2022-08-07T22:00:05.341Z,11.65
2022-08-07T22:02:55.026Z,11.64
2022-08-07T22:05:45.840Z,11.61
2022-08-07T22:08:19.914Z,11.66
2022-08-07T22:10:54.064Z,11.65
2022-08-07T22:13:51.208Z,11.65
2022-08-07T22:16:44.785Z,11.64
2022-08-07T22:19:36.995Z,11.64
2022-08-07T22:22:20.759Z,11.68
2022-08-07T22:25:12.167Z,11.72
2022-08-07T22:28:03.128Z,11.73
2022-08-07T22:30:58.555Z,11.70
2022-08-07T22:33:55.979Z,11.71
2022-08-07T22:36:35.386Z,11.72
2022-08-07T22:39:28.148Z,11.73
2022-08-07T22:42:19.583Z,11.70
2022-08-07T22:44:59.008Z,11.75
2022-08-07T22:48:13.960Z,11.83
2022-08-07T22:51:05.474Z,11.88
2022-08-07T22:54:09.199Z,11.92
2022-08-07T22:57:01.663Z,12.02
2022-08-07T23:00:12.789Z,12.12
2022-08-07T23:02:57.317Z,12.24
2022-08-07T23:06:06.948Z,12.34
2022-08-07T23:08:32.506Z,12.47
2022-08-07T23:11:24.448Z,12.61
2022-08-07T23:14:22.754Z,12.73
2022-08-07T23:17:21.025Z,12.88
2022-08-07T23:20:51.451Z,13.01
2022-08-07T23:24:06.746Z,13.14
2022-08-07T23:26:37.021Z,13.26
2022-08-07T23:29:43.218Z,13.36
2022-08-07T23:34:19.830Z,13.47
2022-08-07T23:35:47.971Z,13.59
2022-08-07T23:38:36.669Z,13.68
2022-08-07T23:42:04.657Z,13.78
2022-08-07T23:45:00.435Z,13.84
2022-08-07T23:47:53.264Z,13.91
2022-08-07T23:50:40.715Z,14.01
2022-08-07T23:53:17.094Z,14.13
2022-08-07T23:56:12.078Z,14.32
2022-08-07T23:59:10.184Z,14.45
